Latest Observation

42 Stations

15 Minute Data | America/Los_Angeles
as of 9/5/26 3:51 AM PDT
Station Date Time Temp (°F) RH (%) Dew Pt (°F) Wind Spd (mph) Wind Dir (°) Wind Gust (mph) Latest Rain (In) Daily Rain (In) Daily Min Temp (°F) Daily Max Temp (°F) Daily Max Wind (mph)
Elk Mt. Farm 8/13/26 1500 85.6   7.4 - - - - - - - 51.4   1.1 85.6   7.4 -
Upper Lake 9/5/26 0345 44.2   1.7 96   1 43.0   2.0 0.0 NW | 308 1.0   1.0 0.00 0.00 43.7   1.4 48.0   1.1 5.2   0.2
Scotts Valley 9/5/26 0345 39.3   0.0 95   1 38.0   0.4 0.0 NW | 320 0.1   0.1 0.00 0.00 39.2   0.2 43.9   1.1 3.2   1.5
Scotts Valley-South (Bella Vista) 9/5/26 0345 43.5   1.9 90   5 40.7   3.2 0.4 S | 180 1.9   3.0 0.00 0.00 43.3   1.0 46.7   0.8 3.8   1.1
Kelseyville 9/5/26 0345 43.6   2.6 93   5 41.6   3.9 0.3 WSW | 240 0.9   2.4 0.00 0.00 43.5   2.4 48.7   0.6 2.6   0.9
Kelseyville Remote 9/5/26 0345 44.8   2.3 80   9 38.9   4.9 - - - 0.00 0.00 44.8   1.8 50.1   0.0 -
Kelseyville (Clark Drive) 9/5/26 0345 42.5   2.2 - - - - - 0.00 0.00 42.3   2.0 45.4   3.1 -
Kelsey Bench (Oaklea) 9/5/26 0345 47.0   0.1 88   9 43.7   2.5 3.7 S | 174 4.7   0.8 0.00 0.00 46.5   0.2 50.4   1.0 4.7   0.3
Smith Lane (Kelseyville-South) 9/5/26 0345 41.7   2.4 92   6 39.5   3.9 0.0 N | 0 0.0   2.1 0.00 0.00 41.7   2.1 47.0   0.2 2.6   0.0
Bell Hill-West 9/5/26 0345 44.7   0.4 100   0 44.7   0.4 2.9 SSW | 192 3.4   0.3 0.00 0.00 44.5   0.3 49.6   0.8 3.8   0.7
High Valley Ridgeline (Brassfield) 9/3/26 1430 64.3   0.5 52   2 46.4   1.6 12.2 WSW | 242 17.9   7.4 0.00 0.01 55.0   3.7 66.3   0.1 20.5   5.3
Wight Way (Adobe Creek) 9/5/26 0300 42.7   1.1 93   4 40.9   2.0 0.5 ESE | 118 1.2   1.2 0.00 0.00 42.7   0.7 46.0   2.2 2.8   0.4
Ridgeline Top (Brassfield) 9/3/26 1430 66.6   0.4 - - - - - - - 54.8   3.7 69.7   1.1 -
Ridgeline Low (Brassfield) 9/3/26 1430 66.8   0.7 - - - - - - - 56.8   4.6 67.8   0.9 -
Long Valley (Shannon) 6/29/26 1400 84.9   4.6 25   1 44.9   3.2 2.9 ENE | 75 10.2   0.4 0.00 0.00 46.4   0.4 86.9   6.5 13.7   1.8
High Valley Winery 9/3/26 1430 65.6   2.0 49   1 45.9   1.2 9.6 WSW | 238 17.0   7.0 0.00 0.01 57.3   4.2 67.3   2.2 17.0   1.1
Round Mtn Rd. 9/5/26 0215 48.6   0.8 - - - - - - - 47.2   2.0 49.3   2.3 -
Circle O 9/5/26 0345 43.4   5.0 - - - - - - - 42.4   4.7 46.7   4.2 -
Robertsbridge Vineyards 9/5/26 0345 42.2   0.9 94   1 40.8   1.2 - - - - - 41.5   1.4 44.4   2.4 -
Urgency Vineyard 9/5/26 0345 45.6   3.5 91   2 43.2   3.0 1.6 SW | 231 2.8   1.4 0.00 0.00 44.2   4.9 53.1   1.3 5.4   1.3
Red Hills (Beckstoffer) 9/5/26 0345 40.5   9.4 93   0 38.8   9.2 - - - 0.00 0.00 40.5   5.0 54.8   2.6 -
Winters (Shannon) 9/5/26 0345 39.2   10.8 92   3 36.9   9.9 0.0 S | 191 0.7   6.1 0.00 0.00 38.7   9.5 49.3   2.2 2.3   8.1
Secret Pond (Shannon) 9/5/26 0345 46.9   2.0 80   9 41.2   4.7 0.8 NNW | 329 3.8   3.2 0.00 0.00 46.9   2.0 54.1   4.0 7.4   5.1
Rolling Knolls (Shannon) 9/5/26 0345 47.5   4.0 86   1 43.5   3.7 1.2 WNW | 303 3.4   1.5 0.00 0.00 46.2   4.7 48.4   5.2 4.4   8.6
Lower Lake 9/5/26 0345 50.0   1.1 85   3 45.7   2.0 2.6 WSW | 255 6.2   3.8 0.00 0.00 49.0   2.2 53.3   0.3 6.2   8.0
Adamson Ranch 9/5/26 0345 42.7   3.5 92   2 40.5   3.9 0.0 N | 0 0.0   3.1 0.00 0.00 42.5   2.2 47.4   6.0 1.3   4.6
Middletown (Diamond D) 9/5/26 0345 47.0   0.9 92   0 45.0   1.0 0.0 N | 0 0.0   2.8 0.00 0.00 46.9   0.9 50.4   2.0 5.7   1.3
Middletown-West (Domaine Helena) 9/5/26 0345 43.1   1.7 97   1 42.3   1.5 1.8 WSW | 248 3.6   0.1 0.00 0.00 42.5   2.3 49.9   5.5 5.1   5.8
Middletown-South 9/5/26 0345 46.8   0.8 96   0 45.7   0.9 1.1 SSW | 201 1.5   0.8 0.00 0.00 46.5   0.7 49.7   2.3 3.0   0.2
Jim Davis (Langtry) 9/5/26 0345 51.1   2.7 89   2 47.8   2.2 2.3 W | 259 3.4   0.7 0.00 0.00 50.4   2.4 55.1   0.3 6.4   0.4
Napa Valley Basin 9/5/26 0345 44.1   0.7 88   5 40.8   2.2 0.8 W | 260 1.9   0.7 0.00 0.00 43.5   0.3 47.9   3.7 3.1   0.0
Lower Bohn 9/5/26 0345 42.4   0.3 83   7 37.5   1.9 0.8 SE | 131 2.0   1.1 0.00 0.00 40.3   1.2 47.2   6.6 4.3   1.1
Upper Bohn-North 9/5/26 0345 49.4   2.8 94   5 47.7   1.4 0.4 ESE | 117 1.4   0.5 0.00 0.00 48.3   1.9 51.7   1.2 2.5   0.1
Snell Peak Blk#9 9/5/26 0345 54.6   2.5 82   10 49.3   0.8 2.2 WNW | 301 3.8   1.5 0.00 0.00 53.0   1.0 56.7   1.6 4.6   1.8
Coyote Lake West 9/5/26 0345 50.2   2.7 85   2 45.9   3.3 0.4 WSW | 257 1.3   1.8 0.00 0.00 49.8   0.7 57.2   1.7 4.0   0.9
Coyote Lake Northeast 9/5/26 0345 51.3   0.3 82   6 46.0   2.3 - - - - - 49.0   1.9 55.8   0.7 -
Coyote Lake East 9/5/26 0345 43.7   1.7 89   5 40.7   3.0 - - - - - 43.7   1.6 47.3   3.8 -
Morgan Valley 9/5/26 0345 55.4   5.5 77   22 48.3   1.2 2.4 N | 2 4.8   0.6 0.00 0.00 52.6   3.0 55.5   4.0 12.0   3.2
Mine Pit North 9/5/26 0345 51.4 82 46.2 0.0 N | 0 0.0 - - 50.8 54.6 6.0
Mine Pit South 9/5/26 0345 54.0   2.7 81   6 48.4   0.9 4.5 N | 2 7.5   3.7 0.00 0.00 53.4   2.5 55.7   2.3 12.3   4.8
Cow Mountain 9/5/26 0345 52.8   7.9 - - 6.6 NNW | 330 9.0   4.4 0.00 0.00 51.4   6.7 53.9   7.3 11.4   3.9
Ukiah-SE (Ruddick) 9/5/26 0345 44.2   2.1 90   4 41.5   3.1 0.4 ESE | 118 2.1   0.4 0.00 0.00 43.9   1.8 48.2   0.6 3.3   0.8
Max     55.4 100 49.3 6.6 - 9.0 0.00 0.00 53.4 57.2 12.3
Avg     46.1 89 43.0 1.3 - 2.6 0.00 - - - -
Min     39.2 77 36.9 0.0 - 0.0 0.00 0.00 38.7 43.9 1.3